sensor_id;sensor_type;location;lat;lon;timestamp;temperature;humidity
8643;DHT22;4359;49.358;11.256;2022-10-16T00:00:39;14.30;99.90
8643;DHT22;4359;49.358;11.256;2022-10-16T00:03:05;14.30;99.90
8643;DHT22;4359;49.358;11.256;2022-10-16T00:05:32;14.20;99.90
8643;DHT22;4359;49.358;11.256;2022-10-16T00:07:57;14.20;99.90
8643;DHT22;4359;49.358;11.256;2022-10-16T00:10:23;14.20;99.90
8643;DHT22;4359;49.358;11.256;2022-10-16T00:12:49;14.20;99.90
8643;DHT22;4359;49.358;11.256;2022-10-16T00:15:15;14.10;99.90
8643;DHT22;4359;49.358;11.256;2022-10-16T00:17:41;14.10;99.90
8643;DHT22;4359;49.358;11.256;2022-10-16T00:20:07;14.20;99.90
8643;DHT22;4359;49.358;11.256;2022-10-16T00:22:33;14.10;99.90
8643;DHT22;4359;49.358;11.256;2022-10-16T00:24:58;14.10;99.90
8643;DHT22;4359;49.358;11.256;2022-10-16T00:27:24;14.10;99.90
8643;DHT22;4359;49.358;11.256;2022-10-16T00:29:51;14.10;99.90
8643;DHT22;4359;49.358;11.256;2022-10-16T00:32:17;14.10;99.90
8643;DHT22;4359;49.358;11.256;2022-10-16T00:34:43;14.10;99.90
8643;DHT22;4359;49.358;11.256;2022-10-16T00:37:09;14.00;99.90
8643;DHT22;4359;49.358;11.256;2022-10-16T00:39:34;14.00;99.90
8643;DHT22;4359;49.358;11.256;2022-10-16T00:42:00;14.00;99.90
8643;DHT22;4359;49.358;11.256;2022-10-16T00:44:42;14.00;99.90
8643;DHT22;4359;49.358;11.256;2022-10-16T00:47:17;14.00;99.90
8643;DHT22;4359;49.358;11.256;2022-10-16T00:49:44;14.00;99.90
8643;DHT22;4359;49.358;11.256;2022-10-16T00:52:10;14.00;99.90
8643;DHT22;4359;49.358;11.256;2022-10-16T00:54:36;14.00;99.90
8643;DHT22;4359;49.358;11.256;2022-10-16T00:57:05;14.00;99.90
8643;DHT22;4359;49.358;11.256;2022-10-16T00:59:36;14.10;99.90
8643;DHT22;4359;49.358;11.256;2022-10-16T01:02:04;14.00;99.90
8643;DHT22;4359;49.358;11.256;2022-10-16T01:04:35;14.00;99.90
8643;DHT22;4359;49.358;11.256;2022-10-16T01:15:36;14.00;99.90
8643;DHT22;4359;49.358;11.256;2022-10-16T01:18:14;14.00;99.90
8643;DHT22;4359;49.358;11.256;2022-10-16T01:23:32;13.90;99.90
8643;DHT22;4359;49.358;11.256;2022-10-16T01:26:29;13.90;99.90
8643;DHT22;4359;49.358;11.256;2022-10-16T01:29:26;13.90;99.90
8643;DHT22;4359;49.358;11.256;2022-10-16T01:34:54;13.90;99.90
8643;DHT22;4359;49.358;11.256;2022-10-16T01:40:00;13.90;99.90
8643;DHT22;4359;49.358;11.256;2022-10-16T01:42:32;13.80;99.90
8643;DHT22;4359;49.358;11.256;2022-10-16T01:45:00;13.80;99.90
8643;DHT22;4359;49.358;11.256;2022-10-16T01:47:27;13.80;99.90
8643;DHT22;4359;49.358;11.256;2022-10-16T01:49:58;13.80;99.90
8643;DHT22;4359;49.358;11.256;2022-10-16T01:52:26;13.80;99.90
8643;DHT22;4359;49.358;11.256;2022-10-16T01:54:56;13.80;99.90
8643;DHT22;4359;49.358;11.256;2022-10-16T01:57:24;13.80;99.90
8643;DHT22;4359;49.358;11.256;2022-10-16T01:59:54;13.80;99.90
8643;DHT22;4359;49.358;11.256;2022-10-16T02:02:22;13.80;99.90
8643;DHT22;4359;49.358;11.256;2022-10-16T02:04:53;13.80;99.90
8643;DHT22;4359;49.358;11.256;2022-10-16T02:07:20;13.80;99.90
8643;DHT22;4359;49.358;11.256;2022-10-16T02:09:46;13.80;99.90
8643;DHT22;4359;49.358;11.256;2022-10-16T02:12:23;13.90;99.90
8643;DHT22;4359;49.358;11.256;2022-10-16T02:14:50;13.90;99.90
8643;DHT22;4359;49.358;11.256;2022-10-16T02:17:18;13.90;99.90
8643;DHT22;4359;49.358;11.256;2022-10-16T02:19:46;13.90;99.90
8643;DHT22;4359;49.358;11.256;2022-10-16T02:22:24;14.00;99.90
8643;DHT22;4359;49.358;11.256;2022-10-16T02:27:44;14.00;99.90
8643;DHT22;4359;49.358;11.256;2022-10-16T02:30:21;14.00;99.90
8643;DHT22;4359;49.358;11.256;2022-10-16T02:32:50;14.00;99.90
8643;DHT22;4359;49.358;11.256;2022-10-16T02:35:18;14.00;99.90
8643;DHT22;4359;49.358;11.256;2022-10-16T02:37:46;14.10;99.90
8643;DHT22;4359;49.358;11.256;2022-10-16T02:40:12;14.10;99.90
8643;DHT22;4359;49.358;11.256;2022-10-16T02:42:39;14.00;99.90
8643;DHT22;4359;49.358;11.256;2022-10-16T02:45:06;14.00;99.90
8643;DHT22;4359;49.358;11.256;2022-10-16T02:47:32;14.00;99.90
8643;DHT22;4359;49.358;11.256;2022-10-16T02:49:58;14.00;99.90
8643;DHT22;4359;49.358;11.256;2022-10-16T02:52:24;14.10;99.90
8643;DHT22;4359;49.358;11.256;2022-10-16T02:54:50;14.10;99.90
8643;DHT22;4359;49.358;11.256;2022-10-16T02:57:15;14.00;99.90
8643;DHT22;4359;49.358;11.256;2022-10-16T02:59:41;14.10;99.90
8643;DHT22;4359;49.358;11.256;2022-10-16T03:02:07;14.10;99.90
8643;DHT22;4359;49.358;11.256;2022-10-16T03:04:32;14.00;99.90
8643;DHT22;4359;49.358;11.256;2022-10-16T03:06:58;14.00;99.90
8643;DHT22;4359;49.358;11.256;2022-10-16T03:09:24;14.10;99.90
8643;DHT22;4359;49.358;11.256;2022-10-16T03:11:49;14.10;99.90
8643;DHT22;4359;49.358;11.256;2022-10-16T03:14:15;14.10;99.90
8643;DHT22;4359;49.358;11.256;2022-10-16T03:16:41;14.10;99.90
8643;DHT22;4359;49.358;11.256;2022-10-16T03:19:07;14.10;99.90
8643;DHT22;4359;49.358;11.256;2022-10-16T03:21:32;14.10;99.90
8643;DHT22;4359;49.358;11.256;2022-10-16T03:23:58;14.10;99.90
8643;DHT22;4359;49.358;11.256;2022-10-16T03:26:23;14.10;99.90
8643;DHT22;4359;49.358;11.256;2022-10-16T03:28:49;14.00;99.90
8643;DHT22;4359;49.358;11.256;2022-10-16T03:31:15;14.10;99.90
8643;DHT22;4359;49.358;11.256;2022-10-16T03:33:40;14.00;99.90
8643;DHT22;4359;49.358;11.256;2022-10-16T03:36:06;14.00;99.90
8643;DHT22;4359;49.358;11.256;2022-10-16T03:38:32;14.00;99.90
8643;DHT22;4359;49.358;11.256;2022-10-16T03:40:57;14.00;99.90
8643;DHT22;4359;49.358;11.256;2022-10-16T03:43:23;14.00;99.90
8643;DHT22;4359;49.358;11.256;2022-10-16T03:45:50;14.00;99.90
8643;DHT22;4359;49.358;11.256;2022-10-16T03:48:17;14.00;99.90
8643;DHT22;4359;49.358;11.256;2022-10-16T03:50:43;14.00;99.90
8643;DHT22;4359;49.358;11.256;2022-10-16T03:53:09;14.00;99.90
8643;DHT22;4359;49.358;11.256;2022-10-16T03:55:35;14.10;99.90
8643;DHT22;4359;49.358;11.256;2022-10-16T03:58:00;14.00;99.90
8643;DHT22;4359;49.358;11.256;2022-10-16T04:00:26;14.00;99.90
8643;DHT22;4359;49.358;11.256;2022-10-16T04:02:52;14.00;99.90
8643;DHT22;4359;49.358;11.256;2022-10-16T04:05:17;14.00;99.90
8643;DHT22;4359;49.358;11.256;2022-10-16T04:07:43;14.00;99.90
8643;DHT22;4359;49.358;11.256;2022-10-16T04:10:09;14.00;99.90
8643;DHT22;4359;49.358;11.256;2022-10-16T04:12:34;14.00;99.90
8643;DHT22;4359;49.358;11.256;2022-10-16T04:15:00;14.00;99.90
8643;DHT22;4359;49.358;11.256;2022-10-16T04:17:26;14.00;99.90
8643;DHT22;4359;49.358;11.256;2022-10-16T04:19:51;14.00;99.90
8643;DHT22;4359;49.358;11.256;2022-10-16T04:22:17;14.00;99.90
8643;DHT22;4359;49.358;11.256;2022-10-16T04:24:42;14.10;99.90
8643;DHT22;4359;49.358;11.256;2022-10-16T04:27:08;14.10;99.90
8643;DHT22;4359;49.358;11.256;2022-10-16T04:29:34;14.10;99.90
8643;DHT22;4359;49.358;11.256;2022-10-16T04:31:59;14.10;99.90
8643;DHT22;4359;49.358;11.256;2022-10-16T04:34:25;14.10;99.90
8643;DHT22;4359;49.358;11.256;2022-10-16T04:36:50;14.10;99.90
8643;DHT22;4359;49.358;11.256;2022-10-16T04:39:16;14.10;99.90
8643;DHT22;4359;49.358;11.256;2022-10-16T04:41:42;14.10;99.90
8643;DHT22;4359;49.358;11.256;2022-10-16T04:44:08;14.10;99.90
8643;DHT22;4359;49.358;11.256;2022-10-16T04:46:34;14.20;99.90
8643;DHT22;4359;49.358;11.256;2022-10-16T04:49:00;14.20;99.90
8643;DHT22;4359;49.358;11.256;2022-10-16T04:51:25;14.20;99.90
8643;DHT22;4359;49.358;11.256;2022-10-16T04:53:52;14.20;99.90
8643;DHT22;4359;49.358;11.256;2022-10-16T04:56:18;14.20;99.90
8643;DHT22;4359;49.358;11.256;2022-10-16T04:58:43;14.10;99.90
8643;DHT22;4359;49.358;11.256;2022-10-16T05:01:09;14.10;99.90
8643;DHT22;4359;49.358;11.256;2022-10-16T05:03:35;14.10;99.90
8643;DHT22;4359;49.358;11.256;2022-10-16T05:06:00;14.10;99.90
8643;DHT22;4359;49.358;11.256;2022-10-16T05:08:26;14.10;99.90
8643;DHT22;4359;49.358;11.256;2022-10-16T05:10:51;14.00;99.90
8643;DHT22;4359;49.358;11.256;2022-10-16T05:13:17;14.00;99.90
8643;DHT22;4359;49.358;11.256;2022-10-16T05:15:47;14.00;99.90
8643;DHT22;4359;49.358;11.256;2022-10-16T05:18:13;14.00;99.90
8643;DHT22;4359;49.358;11.256;2022-10-16T05:20:39;14.00;99.90
8643;DHT22;4359;49.358;11.256;2022-10-16T05:23:04;14.00;99.90
8643;DHT22;4359;49.358;11.256;2022-10-16T05:25:30;13.90;99.90
8643;DHT22;4359;49.358;11.256;2022-10-16T05:27:56;13.90;99.90
8643;DHT22;4359;49.358;11.256;2022-10-16T05:30:21;13.90;99.90
8643;DHT22;4359;49.358;11.256;2022-10-16T05:32:48;13.80;99.90
8643;DHT22;4359;49.358;11.256;2022-10-16T05:35:16;13.80;99.90
8643;DHT22;4359;49.358;11.256;2022-10-16T05:37:42;13.80;99.90
8643;DHT22;4359;49.358;11.256;2022-10-16T05:40:08;13.80;99.90
8643;DHT22;4359;49.358;11.256;2022-10-16T05:42:34;13.70;99.90
8643;DHT22;4359;49.358;11.256;2022-10-16T05:45:00;13.70;99.90
8643;DHT22;4359;49.358;11.256;2022-10-16T05:47:26;13.60;99.90
8643;DHT22;4359;49.358;11.256;2022-10-16T05:49:51;13.60;99.90
8643;DHT22;4359;49.358;11.256;2022-10-16T05:52:17;13.60;99.90
8643;DHT22;4359;49.358;11.256;2022-10-16T05:54:43;13.60;99.90
8643;DHT22;4359;49.358;11.256;2022-10-16T05:57:08;13.70;99.90
8643;DHT22;4359;49.358;11.256;2022-10-16T05:59:34;13.70;99.90
8643;DHT22;4359;49.358;11.256;2022-10-16T06:02:00;13.70;99.90
8643;DHT22;4359;49.358;11.256;2022-10-16T06:04:26;13.70;99.90
8643;DHT22;4359;49.358;11.256;2022-10-16T06:06:51;13.70;99.90
8643;DHT22;4359;49.358;11.256;2022-10-16T06:09:17;13.70;99.90
8643;DHT22;4359;49.358;11.256;2022-10-16T06:11:42;13.80;99.90
8643;DHT22;4359;49.358;11.256;2022-10-16T06:14:08;13.90;99.90
8643;DHT22;4359;49.358;11.256;2022-10-16T06:16:36;14.00;99.90
8643;DHT22;4359;49.358;11.256;2022-10-16T06:19:02;14.20;99.90
8643;DHT22;4359;49.358;11.256;2022-10-16T06:21:29;14.20;99.90
8643;DHT22;4359;49.358;11.256;2022-10-16T06:23:56;14.30;99.90
8643;DHT22;4359;49.358;11.256;2022-10-16T06:26:24;14.40;99.90
8643;DHT22;4359;49.358;11.256;2022-10-16T06:28:50;14.50;99.90
8643;DHT22;4359;49.358;11.256;2022-10-16T06:31:16;14.40;99.90
8643;DHT22;4359;49.358;11.256;2022-10-16T06:33:42;14.50;99.90
8643;DHT22;4359;49.358;11.256;2022-10-16T06:36:13;14.50;99.90
8643;DHT22;4359;49.358;11.256;2022-10-16T06:38:40;14.50;99.90
8643;DHT22;4359;49.358;11.256;2022-10-16T06:41:07;14.50;99.90
8643;DHT22;4359;49.358;11.256;2022-10-16T06:43:33;14.50;99.90
8643;DHT22;4359;49.358;11.256;2022-10-16T06:46:04;14.50;99.90
8643;DHT22;4359;49.358;11.256;2022-10-16T06:48:30;14.50;99.90
8643;DHT22;4359;49.358;11.256;2022-10-16T06:51:00;14.70;99.90
8643;DHT22;4359;49.358;11.256;2022-10-16T06:53:28;14.90;99.90
8643;DHT22;4359;49.358;11.256;2022-10-16T06:55:54;15.00;99.90
8643;DHT22;4359;49.358;11.256;2022-10-16T06:58:20;15.10;99.90
8643;DHT22;4359;49.358;11.256;2022-10-16T07:00:45;15.40;99.90
8643;DHT22;4359;49.358;11.256;2022-10-16T07:03:11;15.90;99.90
8643;DHT22;4359;49.358;11.256;2022-10-16T07:05:41;16.30;99.90
8643;DHT22;4359;49.358;11.256;2022-10-16T07:08:08;16.40;99.90
8643;DHT22;4359;49.358;11.256;2022-10-16T07:10:34;16.30;99.90
8643;DHT22;4359;49.358;11.256;2022-10-16T07:13:01;16.30;99.90
8643;DHT22;4359;49.358;11.256;2022-10-16T07:15:27;16.20;99.90
8643;DHT22;4359;49.358;11.256;2022-10-16T07:17:53;16.10;99.90
8643;DHT22;4359;49.358;11.256;2022-10-16T07:20:19;16.10;99.90
8643;DHT22;4359;49.358;11.256;2022-10-16T07:22:45;16.10;99.90
8643;DHT22;4359;49.358;11.256;2022-10-16T07:25:10;16.00;99.90
8643;DHT22;4359;49.358;11.256;2022-10-16T07:27:37;16.00;99.90
8643;DHT22;4359;49.358;11.256;2022-10-16T07:30:03;15.90;99.90
8643;DHT22;4359;49.358;11.256;2022-10-16T07:32:29;16.00;99.90
8643;DHT22;4359;49.358;11.256;2022-10-16T07:34:55;16.00;99.90
8643;DHT22;4359;49.358;11.256;2022-10-16T07:37:21;16.00;99.90
8643;DHT22;4359;49.358;11.256;2022-10-16T07:39:47;16.00;99.90
8643;DHT22;4359;49.358;11.256;2022-10-16T07:42:13;16.10;99.90
8643;DHT22;4359;49.358;11.256;2022-10-16T07:44:38;16.00;99.90
8643;DHT22;4359;49.358;11.256;2022-10-16T07:47:05;16.00;99.90
8643;DHT22;4359;49.358;11.256;2022-10-16T07:49:31;16.00;99.90
8643;DHT22;4359;49.358;11.256;2022-10-16T07:51:57;16.00;99.90
8643;DHT22;4359;49.358;11.256;2022-10-16T07:54:22;16.00;99.90
8643;DHT22;4359;49.358;11.256;2022-10-16T07:56:48;16.00;99.90
8643;DHT22;4359;49.358;11.256;2022-10-16T07:59:14;15.90;99.90
8643;DHT22;4359;49.358;11.256;2022-10-16T08:01:39;15.80;99.90
8643;DHT22;4359;49.358;11.256;2022-10-16T08:04:08;15.80;99.90
8643;DHT22;4359;49.358;11.256;2022-10-16T08:06:36;15.90;99.90
8643;DHT22;4359;49.358;11.256;2022-10-16T08:09:02;16.00;99.90
8643;DHT22;4359;49.358;11.256;2022-10-16T08:11:28;16.10;99.90
8643;DHT22;4359;49.358;11.256;2022-10-16T08:13:54;16.20;99.90
8643;DHT22;4359;49.358;11.256;2022-10-16T08:16:20;16.30;99.90
8643;DHT22;4359;49.358;11.256;2022-10-16T08:18:46;16.30;99.90
8643;DHT22;4359;49.358;11.256;2022-10-16T08:21:16;16.30;99.90
8643;DHT22;4359;49.358;11.256;2022-10-16T08:23:42;16.40;99.90
8643;DHT22;4359;49.358;11.256;2022-10-16T08:26:09;16.50;99.90
8643;DHT22;4359;49.358;11.256;2022-10-16T08:28:36;16.70;99.90
8643;DHT22;4359;49.358;11.256;2022-10-16T08:31:09;17.00;99.90
8643;DHT22;4359;49.358;11.256;2022-10-16T08:33:35;17.30;99.90
8643;DHT22;4359;49.358;11.256;2022-10-16T08:36:02;17.50;99.90
8643;DHT22;4359;49.358;11.256;2022-10-16T08:38:28;17.60;99.90
8643;DHT22;4359;49.358;11.256;2022-10-16T08:41:02;17.70;99.90
8643;DHT22;4359;49.358;11.256;2022-10-16T08:43:39;17.80;99.90
8643;DHT22;4359;49.358;11.256;2022-10-16T08:46:16;18.00;99.90
8643;DHT22;4359;49.358;11.256;2022-10-16T08:48:51;18.30;99.90
8643;DHT22;4359;49.358;11.256;2022-10-16T08:51:28;18.50;99.90
8643;DHT22;4359;49.358;11.256;2022-10-16T08:54:01;18.60;99.90
8643;DHT22;4359;49.358;11.256;2022-10-16T08:56:28;18.80;99.90
8643;DHT22;4359;49.358;11.256;2022-10-16T08:58:54;19.10;99.90
8643;DHT22;4359;49.358;11.256;2022-10-16T09:07:02;19.70;99.90
8643;DHT22;4359;49.358;11.256;2022-10-16T09:09:44;19.30;99.90
8643;DHT22;4359;49.358;11.256;2022-10-16T09:12:35;19.20;99.90
8643;DHT22;4359;49.358;11.256;2022-10-16T09:15:28;19.10;99.90
8643;DHT22;4359;49.358;11.256;2022-10-16T09:20:49;19.00;99.90
8643;DHT22;4359;49.358;11.256;2022-10-16T09:23:28;19.10;99.90
8643;DHT22;4359;49.358;11.256;2022-10-16T09:25:56;19.30;99.90
8643;DHT22;4359;49.358;11.256;2022-10-16T09:28:23;19.60;99.90
8643;DHT22;4359;49.358;11.256;2022-10-16T09:30:49;20.00;99.90
8643;DHT22;4359;49.358;11.256;2022-10-16T09:33:16;20.40;99.90
8643;DHT22;4359;49.358;11.256;2022-10-16T09:35:44;20.60;99.90
8643;DHT22;4359;49.358;11.256;2022-10-16T09:38:31;20.60;99.90
8643;DHT22;4359;49.358;11.256;2022-10-16T09:40:58;20.60;99.90
8643;DHT22;4359;49.358;11.256;2022-10-16T09:43:35;20.30;99.90
8643;DHT22;4359;49.358;11.256;2022-10-16T09:46:07;19.90;99.90
8643;DHT22;4359;49.358;11.256;2022-10-16T09:48:39;19.70;99.90
8643;DHT22;4359;49.358;11.256;2022-10-16T09:51:19;19.40;99.90
8643;DHT22;4359;49.358;11.256;2022-10-16T09:53:46;19.30;99.90
8643;DHT22;4359;49.358;11.256;2022-10-16T09:56:22;19.20;99.90
8643;DHT22;4359;49.358;11.256;2022-10-16T09:58:57;19.00;99.90
8643;DHT22;4359;49.358;11.256;2022-10-16T10:01:36;19.00;99.90
8643;DHT22;4359;49.358;11.256;2022-10-16T10:04:03;19.00;99.90
8643;DHT22;4359;49.358;11.256;2022-10-16T10:06:34;19.10;99.90
8643;DHT22;4359;49.358;11.256;2022-10-16T10:11:54;19.60;99.90
8643;DHT22;4359;49.358;11.256;2022-10-16T10:14:24;19.80;99.90
8643;DHT22;4359;49.358;11.256;2022-10-16T10:17:00;20.10;99.90
8643;DHT22;4359;49.358;11.256;2022-10-16T10:19:27;20.30;99.90
8643;DHT22;4359;49.358;11.256;2022-10-16T10:21:52;20.50;99.90
8643;DHT22;4359;49.358;11.256;2022-10-16T10:24:19;20.60;99.90
8643;DHT22;4359;49.358;11.256;2022-10-16T10:27:10;20.90;99.90
8643;DHT22;4359;49.358;11.256;2022-10-16T10:29:59;20.90;99.90
8643;DHT22;4359;49.358;11.256;2022-10-16T10:32:59;21.00;99.90
8643;DHT22;4359;49.358;11.256;2022-10-16T10:41:13;20.80;99.90
8643;DHT22;4359;49.358;11.256;2022-10-16T10:49:04;20.80;99.90
8643;DHT22;4359;49.358;11.256;2022-10-16T10:51:48;21.00;99.90
8643;DHT22;4359;49.358;11.256;2022-10-16T10:54:20;21.30;99.90
8643;DHT22;4359;49.358;11.256;2022-10-16T10:57:09;21.30;99.90
8643;DHT22;4359;49.358;11.256;2022-10-16T11:05:28;22.20;99.90
8643;DHT22;4359;49.358;11.256;2022-10-16T11:07:59;22.40;99.90
8643;DHT22;4359;49.358;11.256;2022-10-16T11:10:51;22.30;99.90
8643;DHT22;4359;49.358;11.256;2022-10-16T11:13:29;22.30;99.90
8643;DHT22;4359;49.358;11.256;2022-10-16T11:16:13;22.00;99.90
8643;DHT22;4359;49.358;11.256;2022-10-16T11:18:59;21.60;99.90
8643;DHT22;4359;49.358;11.256;2022-10-16T11:21:40;21.40;99.90
8643;DHT22;4359;49.358;11.256;2022-10-16T11:26:43;21.40;99.90
8643;DHT22;4359;49.358;11.256;2022-10-16T11:29:19;21.50;99.90
8643;DHT22;4359;49.358;11.256;2022-10-16T11:31:57;21.70;99.90
8643;DHT22;4359;49.358;11.256;2022-10-16T11:34:32;21.80;99.90
8643;DHT22;4359;49.358;11.256;2022-10-16T11:37:08;21.70;99.90
8643;DHT22;4359;49.358;11.256;2022-10-16T11:39:35;21.90;99.90
8643;DHT22;4359;49.358;11.256;2022-10-16T11:42:16;22.20;99.90
8643;DHT22;4359;49.358;11.256;2022-10-16T11:44:45;22.50;99.90
8643;DHT22;4359;49.358;11.256;2022-10-16T11:47:27;22.70;99.90
8643;DHT22;4359;49.358;11.256;2022-10-16T11:50:02;23.00;99.90
8643;DHT22;4359;49.358;11.256;2022-10-16T11:52:49;23.40;99.90
8643;DHT22;4359;49.358;11.256;2022-10-16T11:55:23;23.60;99.90
8643;DHT22;4359;49.358;11.256;2022-10-16T11:58:19;24.00;99.90
8643;DHT22;4359;49.358;11.256;2022-10-16T12:00:54;24.70;99.90
8643;DHT22;4359;49.358;11.256;2022-10-16T12:03:33;25.30;99.90
8643;DHT22;4359;49.358;11.256;2022-10-16T12:08:50;25.70;99.90
8643;DHT22;4359;49.358;11.256;2022-10-16T12:13:50;24.80;99.90
8643;DHT22;4359;49.358;11.256;2022-10-16T12:18:46;23.90;99.90
8643;DHT22;4359;49.358;11.256;2022-10-16T12:21:16;23.80;99.90
8643;DHT22;4359;49.358;11.256;2022-10-16T12:23:51;23.70;99.90
8643;DHT22;4359;49.358;11.256;2022-10-16T12:26:29;23.70;99.90
8643;DHT22;4359;49.358;11.256;2022-10-16T12:29:12;23.80;99.90
8643;DHT22;4359;49.358;11.256;2022-10-16T12:31:44;24.00;99.90
8643;DHT22;4359;49.358;11.256;2022-10-16T12:34:37;23.60;99.90
8643;DHT22;4359;49.358;11.256;2022-10-16T12:39:36;23.00;99.90
8643;DHT22;4359;49.358;11.256;2022-10-16T12:44:55;22.20;99.90
8643;DHT22;4359;49.358;11.256;2022-10-16T12:49:56;22.30;99.90
8643;DHT22;4359;49.358;11.256;2022-10-16T12:55:00;22.90;99.90
8643;DHT22;4359;49.358;11.256;2022-10-16T12:57:51;23.00;99.90
8643;DHT22;4359;49.358;11.256;2022-10-16T13:00:32;23.10;99.90
8643;DHT22;4359;49.358;11.256;2022-10-16T13:06:13;23.40;99.90
8643;DHT22;4359;49.358;11.256;2022-10-16T13:08:43;23.50;99.90
8643;DHT22;4359;49.358;11.256;2022-10-16T13:16:30;23.30;99.90
8643;DHT22;4359;49.358;11.256;2022-10-16T13:22:30;23.70;99.90
8643;DHT22;4359;49.358;11.256;2022-10-16T13:28:28;23.70;99.90
8643;DHT22;4359;49.358;11.256;2022-10-16T13:30:57;23.90;99.90
8643;DHT22;4359;49.358;11.256;2022-10-16T13:35:54;24.00;99.90
8643;DHT22;4359;49.358;11.256;2022-10-16T13:38:23;23.80;99.90
8643;DHT22;4359;49.358;11.256;2022-10-16T13:40:59;23.60;99.90
8643;DHT22;4359;49.358;11.256;2022-10-16T13:43:35;23.90;99.90
8643;DHT22;4359;49.358;11.256;2022-10-16T13:46:16;24.30;99.90
8643;DHT22;4359;49.358;11.256;2022-10-16T13:48:43;24.90;99.90
8643;DHT22;4359;49.358;11.256;2022-10-16T13:51:14;25.00;99.90
8643;DHT22;4359;49.358;11.256;2022-10-16T13:53:40;25.00;99.90
8643;DHT22;4359;49.358;11.256;2022-10-16T13:56:19;25.10;99.90
8643;DHT22;4359;49.358;11.256;2022-10-16T13:58:46;24.70;99.90
8643;DHT22;4359;49.358;11.256;2022-10-16T14:03:44;24.10;99.90
8643;DHT22;4359;49.358;11.256;2022-10-16T14:06:16;23.90;99.90
8643;DHT22;4359;49.358;11.256;2022-10-16T14:08:45;23.70;99.90
8643;DHT22;4359;49.358;11.256;2022-10-16T14:11:12;23.70;99.90
8643;DHT22;4359;49.358;11.256;2022-10-16T14:13:43;23.70;99.90
8643;DHT22;4359;49.358;11.256;2022-10-16T14:16:11;23.50;99.90
8643;DHT22;4359;49.358;11.256;2022-10-16T14:18:41;23.30;99.90
8643;DHT22;4359;49.358;11.256;2022-10-16T14:21:16;23.00;99.90
8643;DHT22;4359;49.358;11.256;2022-10-16T14:23:42;22.60;99.90
8643;DHT22;4359;49.358;11.256;2022-10-16T14:28:34;22.10;99.90
8643;DHT22;4359;49.358;11.256;2022-10-16T14:31:02;22.00;99.90
8643;DHT22;4359;49.358;11.256;2022-10-16T14:36:20;21.70;99.90
8643;DHT22;4359;49.358;11.256;2022-10-16T14:39:00;21.60;99.90
8643;DHT22;4359;49.358;11.256;2022-10-16T14:41:27;21.50;99.90
8643;DHT22;4359;49.358;11.256;2022-10-16T14:43:55;21.50;99.90
8643;DHT22;4359;49.358;11.256;2022-10-16T14:46:33;21.40;99.90
8643;DHT22;4359;49.358;11.256;2022-10-16T14:51:38;21.00;99.90
8643;DHT22;4359;49.358;11.256;2022-10-16T14:54:04;20.70;99.90
8643;DHT22;4359;49.358;11.256;2022-10-16T14:56:35;20.70;99.90
8643;DHT22;4359;49.358;11.256;2022-10-16T14:59:25;20.70;99.90
8643;DHT22;4359;49.358;11.256;2022-10-16T15:01:53;20.60;99.90
8643;DHT22;4359;49.358;11.256;2022-10-16T15:04:18;20.40;99.90
8643;DHT22;4359;49.358;11.256;2022-10-16T15:06:44;20.40;99.90
8643;DHT22;4359;49.358;11.256;2022-10-16T15:09:10;20.40;99.90
8643;DHT22;4359;49.358;11.256;2022-10-16T15:11:36;20.40;99.90
8643;DHT22;4359;49.358;11.256;2022-10-16T15:14:03;20.40;99.90
8643;DHT22;4359;49.358;11.256;2022-10-16T15:16:29;20.30;99.90
8643;DHT22;4359;49.358;11.256;2022-10-16T15:18:55;20.30;99.90
8643;DHT22;4359;49.358;11.256;2022-10-16T15:21:26;20.10;99.90
8643;DHT22;4359;49.358;11.256;2022-10-16T15:23:53;20.00;99.90
8643;DHT22;4359;49.358;11.256;2022-10-16T15:26:18;20.00;99.90
8643;DHT22;4359;49.358;11.256;2022-10-16T15:28:44;19.90;99.90
8643;DHT22;4359;49.358;11.256;2022-10-16T15:31:10;19.80;99.90
8643;DHT22;4359;49.358;11.256;2022-10-16T15:33:36;19.70;99.90
8643;DHT22;4359;49.358;11.256;2022-10-16T15:36:02;19.70;99.90
8643;DHT22;4359;49.358;11.256;2022-10-16T15:38:28;19.60;99.90
8643;DHT22;4359;49.358;11.256;2022-10-16T15:40:55;19.50;99.90
8643;DHT22;4359;49.358;11.256;2022-10-16T15:43:21;19.40;99.90
8643;DHT22;4359;49.358;11.256;2022-10-16T15:46:05;19.30;99.90
8643;DHT22;4359;49.358;11.256;2022-10-16T15:48:31;19.20;99.90
8643;DHT22;4359;49.358;11.256;2022-10-16T15:50:57;18.90;99.90
8643;DHT22;4359;49.358;11.256;2022-10-16T15:53:26;18.70;99.90
8643;DHT22;4359;49.358;11.256;2022-10-16T15:55:52;18.70;99.90
8643;DHT22;4359;49.358;11.256;2022-10-16T15:58:18;18.70;99.90
8643;DHT22;4359;49.358;11.256;2022-10-16T16:00:43;18.80;99.90
8643;DHT22;4359;49.358;11.256;2022-10-16T16:03:10;18.70;99.90
8643;DHT22;4359;49.358;11.256;2022-10-16T16:05:38;18.50;99.90
8643;DHT22;4359;49.358;11.256;2022-10-16T16:08:04;18.40;99.90
8643;DHT22;4359;49.358;11.256;2022-10-16T16:10:30;18.30;99.90
8643;DHT22;4359;49.358;11.256;2022-10-16T16:12:55;18.10;99.90
8643;DHT22;4359;49.358;11.256;2022-10-16T16:15:21;18.00;99.90
8643;DHT22;4359;49.358;11.256;2022-10-16T16:17:48;18.00;99.90
8643;DHT22;4359;49.358;11.256;2022-10-16T16:20:13;17.90;99.90
8643;DHT22;4359;49.358;11.256;2022-10-16T16:22:39;17.80;99.90
8643;DHT22;4359;49.358;11.256;2022-10-16T16:25:05;17.80;99.90
8643;DHT22;4359;49.358;11.256;2022-10-16T16:27:34;17.70;99.90
8643;DHT22;4359;49.358;11.256;2022-10-16T16:30:10;17.70;99.90
8643;DHT22;4359;49.358;11.256;2022-10-16T16:32:36;17.70;99.90
8643;DHT22;4359;49.358;11.256;2022-10-16T16:35:08;17.60;99.90
8643;DHT22;4359;49.358;11.256;2022-10-16T16:37:34;17.60;99.90
8643;DHT22;4359;49.358;11.256;2022-10-16T16:40:02;17.50;99.90
8643;DHT22;4359;49.358;11.256;2022-10-16T16:42:28;17.40;99.90
8643;DHT22;4359;49.358;11.256;2022-10-16T16:44:54;17.30;99.90
8643;DHT22;4359;49.358;11.256;2022-10-16T16:47:20;17.30;99.90
8643;DHT22;4359;49.358;11.256;2022-10-16T16:49:45;17.20;99.90
8643;DHT22;4359;49.358;11.256;2022-10-16T16:52:15;17.20;99.90
8643;DHT22;4359;49.358;11.256;2022-10-16T16:54:40;17.10;99.90
8643;DHT22;4359;49.358;11.256;2022-10-16T16:57:06;17.10;99.90
8643;DHT22;4359;49.358;11.256;2022-10-16T16:59:32;17.00;99.90
8643;DHT22;4359;49.358;11.256;2022-10-16T17:02:08;17.00;99.90
8643;DHT22;4359;49.358;11.256;2022-10-16T17:04:34;16.90;99.90
8643;DHT22;4359;49.358;11.256;2022-10-16T17:07:00;16.80;99.90
8643;DHT22;4359;49.358;11.256;2022-10-16T17:09:26;16.80;99.90
8643;DHT22;4359;49.358;11.256;2022-10-16T17:11:52;16.80;99.90
8643;DHT22;4359;49.358;11.256;2022-10-16T17:14:20;16.70;99.90
8643;DHT22;4359;49.358;11.256;2022-10-16T17:16:46;16.70;99.90
8643;DHT22;4359;49.358;11.256;2022-10-16T17:19:16;16.70;99.90
8643;DHT22;4359;49.358;11.256;2022-10-16T17:21:48;16.70;99.90
8643;DHT22;4359;49.358;11.256;2022-10-16T17:24:14;16.60;99.90
8643;DHT22;4359;49.358;11.256;2022-10-16T17:26:40;16.60;99.90
8643;DHT22;4359;49.358;11.256;2022-10-16T17:29:11;16.50;99.90
8643;DHT22;4359;49.358;11.256;2022-10-16T17:31:38;16.50;99.90
8643;DHT22;4359;49.358;11.256;2022-10-16T17:34:05;16.50;99.90